Terminal Aerodrome Forecast
Issued by NWS Blacksburg, VA

Current Version | Previous Version | Text Only | Print | Product List | Glossary Off
Versions: 1 2 3 4 5 6 7 8 9 10 11 12 13 14 15 16 17 18 19 20 21 22 23 24 25 26 27 28 29 30 31 32 33 34 35 36 37 38 39 40 41 42 43

000
FTUS41 KRNK 210540
TAFBLF
TAF
KBLF 210540Z 2106/2206 VRB05KT P6SM OVC010
     FM210700 13002KT 5SM BR OVC008
     FM211400 14005KT P6SM BKN015
     FM211700 14004KT 6SM -SHRA SCT025 BKN040
     FM220000 VRB03KT P6SM OVC035
     FM220400 15002KT 4SM BR OVC015=

USA.gov is the U.S. government's official web portal to all federal, state and local government web resources and services.